SAA2206 FMMI-FMEE
Flight info
| Callsign | SAA2206 |
|---|---|
| Flight time | 1h 10m |
| Altitude | 39000 |
| Route | PIPRI1E TE UA401 UNKIK UNKIK2R |
| Aircraft | A319/M-SDE3FGHIRWY/LB1 |
Departure
| Time | 2026-04-18 07:06 |
|---|---|
| Airport | Ivato International Airport (FMMI) |
Arrival
| Time | 2026-04-18 08:17 |
|---|---|
| Airport | Roland Garros Airport (FMEE) |
| Time | Latitude | Longitude | Altitude | Speed | Heading |
|---|---|---|---|---|---|
| 2026-04-18 06:39 | -18.80006 | 47.48089 | 4160 ft | 0 kts | 189° |
| 2026-04-18 06:52 | -18.79997 | 47.48091 | 4160 ft | 2 kts | 189° |
| 2026-04-18 06:53 | -18.79982 | 47.48093 | 4160 ft | 2 kts | 189° |
| 2026-04-18 06:53 | -18.79967 | 47.48096 | 4161 ft | 2 kts | 189° |
| 2026-04-18 06:53 | -18.79952 | 47.48098 | 4160 ft | 2 kts | 189° |
| 2026-04-18 06:53 | -18.79938 | 47.48101 | 4160 ft | 2 kts | 189° |
| 2026-04-18 06:54 | -18.79923 | 47.48106 | 4160 ft | 2 kts | 221° |
| 2026-04-18 06:54 | -18.79914 | 47.48119 | 4160 ft | 2 kts | 252° |
| 2026-04-18 06:54 | -18.79913 | 47.48130 | 4160 ft | 0 kts | 276° |
| 2026-04-18 06:54 | -18.79914 | 47.48138 | 4160 ft | 0 kts | 280° |
| 2026-04-18 06:56 | -18.79910 | 47.48111 | 4160 ft | 8 kts | 280° |
| 2026-04-18 06:56 | -18.79897 | 47.48025 | 4160 ft | 14 kts | 277° |
| 2026-04-18 06:57 | -18.79881 | 47.47898 | 4160 ft | 19 kts | 282° |
| 2026-04-18 06:57 | -18.79832 | 47.47720 | 4160 ft | 9 kts | 276° |
| 2026-04-18 06:57 | -18.79823 | 47.47654 | 4160 ft | 8 kts | 289° |
| 2026-04-18 06:58 | -18.79785 | 47.47604 | 4160 ft | 9 kts | 332° |
| 2026-04-18 06:58 | -18.79752 | 47.47597 | 4160 ft | 0 kts | 6° |
| 2026-04-18 06:58 | -18.79748 | 47.47597 | 4160 ft | 0 kts | 2° |
| 2026-04-18 07:01 | -18.79727 | 47.47599 | 4160 ft | 9 kts | 5° |
| 2026-04-18 07:02 | -18.79664 | 47.47598 | 4160 ft | 8 kts | 350° |
| 2026-04-18 07:02 | -18.79639 | 47.47544 | 4160 ft | 13 kts | 279° |
| 2026-04-18 07:02 | -18.79619 | 47.47406 | 4160 ft | 24 kts | 279° |
| 2026-04-18 07:02 | -18.79592 | 47.47230 | 4160 ft | 22 kts | 279° |
| 2026-04-18 07:03 | -18.79570 | 47.47078 | 4160 ft | 20 kts | 277° |
| 2026-04-18 07:03 | -18.79540 | 47.46872 | 4160 ft | 30 kts | 279° |
| 2026-04-18 07:03 | -18.79509 | 47.46666 | 4160 ft | 26 kts | 279° |
| 2026-04-18 07:03 | -18.79483 | 47.46526 | 4160 ft | 13 kts | 300° |
| 2026-04-18 07:04 | -18.79450 | 47.46473 | 4160 ft | 8 kts | 281° |
| 2026-04-18 07:04 | -18.79484 | 47.46452 | 4160 ft | 7 kts | 91° |
| 2026-04-18 07:04 | -18.79483 | 47.46493 | 4160 ft | 0 kts | 99° |
| 2026-04-18 07:05 | -18.79495 | 47.46572 | 4160 ft | 36 kts | 99° |
| 2026-04-18 07:05 | -18.79571 | 47.47080 | 4161 ft | 102 kts | 99° |
| 2026-04-18 07:06 | -18.79713 | 47.48028 | 4162 ft | 157 kts | 98° |
| 2026-04-18 07:06 | -18.79888 | 47.49222 | 4573 ft | 167 kts | 99° |
| 2026-04-18 07:06 | -18.80078 | 47.50434 | 5160 ft | 169 kts | 99° |
| 2026-04-18 07:06 | -18.80242 | 47.51654 | 5773 ft | 170 kts | 99° |
| 2026-04-18 07:07 | -18.80408 | 47.52855 | 6247 ft | 169 kts | 99° |
| 2026-04-18 07:07 | -18.80620 | 47.54119 | 6573 ft | 179 kts | 99° |
| 2026-04-18 07:07 | -18.80864 | 47.55468 | 6860 ft | 194 kts | 103° |
| 2026-04-18 07:07 | -18.81180 | 47.56914 | 7155 ft | 209 kts | 103° |
| 2026-04-18 07:08 | -18.81520 | 47.58478 | 7458 ft | 225 kts | 103° |
| 2026-04-18 07:08 | -18.81884 | 47.60141 | 7735 ft | 244 kts | 104° |
| 2026-04-18 07:08 | -18.82282 | 47.61952 | 8122 ft | 260 kts | 104° |
| 2026-04-18 07:08 | -18.82696 | 47.63824 | 8847 ft | 262 kts | 103° |
| 2026-04-18 07:09 | -18.83104 | 47.65711 | 9493 ft | 268 kts | 104° |
| 2026-04-18 07:09 | -18.83533 | 47.67675 | 9899 ft | 285 kts | 103° |
| 2026-04-18 07:09 | -18.83983 | 47.69756 | 10542 ft | 293 kts | 104° |
| 2026-04-18 07:09 | -18.84446 | 47.71887 | 11006 ft | 307 kts | 104° |
| 2026-04-18 07:10 | -18.84939 | 47.74151 | 11338 ft | 326 kts | 104° |
| 2026-04-18 07:10 | -18.85466 | 47.76569 | 11658 ft | 344 kts | 104° |
| 2026-04-18 07:10 | -18.86010 | 47.79071 | 12166 ft | 354 kts | 104° |
| 2026-04-18 07:10 | -18.86564 | 47.81629 | 12869 ft | 357 kts | 104° |
| 2026-04-18 07:11 | -18.87112 | 47.84159 | 13554 ft | 360 kts | 104° |
| 2026-04-18 07:11 | -18.87671 | 47.86741 | 14209 ft | 364 kts | 105° |
| 2026-04-18 07:11 | -18.88243 | 47.89378 | 14854 ft | 368 kts | 105° |
| 2026-04-18 07:11 | -18.88757 | 47.91770 | 15422 ft | 372 kts | 105° |
| 2026-04-18 07:12 | -18.89319 | 47.94441 | 16041 ft | 375 kts | 105° |
| 2026-04-18 07:12 | -18.89880 | 47.97123 | 16642 ft | 379 kts | 105° |
| 2026-04-18 07:12 | -18.90458 | 47.99878 | 17240 ft | 383 kts | 101° |
| 2026-04-18 07:12 | -18.90945 | 48.02136 | 17886 ft | 381 kts | 102° |
| 2026-04-18 07:13 | -18.91510 | 48.04810 | 18789 ft | 375 kts | 102° |
| 2026-04-18 07:13 | -18.92071 | 48.07495 | 19443 ft | 376 kts | 101° |
| 2026-04-18 07:13 | -18.92638 | 48.10218 | 20006 ft | 380 kts | 101° |
| 2026-04-18 07:13 | -18.93207 | 48.12947 | 20565 ft | 383 kts | 101° |
| 2026-04-18 07:14 | -18.93780 | 48.15691 | 21112 ft | 387 kts | 101° |
| 2026-04-18 07:14 | -18.94358 | 48.18463 | 21641 ft | 390 kts | 100° |
| 2026-04-18 07:14 | -18.94950 | 48.21275 | 22149 ft | 394 kts | 101° |
| 2026-04-18 07:14 | -18.95656 | 48.24094 | 22640 ft | 399 kts | 103° |
| 2026-04-18 07:15 | -18.96456 | 48.26915 | 23110 ft | 403 kts | 104° |
| 2026-04-18 07:15 | -18.97271 | 48.29745 | 23553 ft | 407 kts | 104° |
| 2026-04-18 07:15 | -18.98101 | 48.32616 | 23985 ft | 411 kts | 103° |
| 2026-04-18 07:15 | -18.98941 | 48.35531 | 24407 ft | 415 kts | 103° |
| 2026-04-18 07:16 | -18.99787 | 48.38469 | 24815 ft | 419 kts | 103° |
| 2026-04-18 07:16 | -19.00632 | 48.41404 | 25209 ft | 423 kts | 103° |
| 2026-04-18 07:16 | -19.01504 | 48.44438 | 25603 ft | 428 kts | 103° |
| 2026-04-18 07:16 | -19.02375 | 48.47469 | 25981 ft | 432 kts | 103° |
| 2026-04-18 07:17 | -19.03243 | 48.50494 | 26351 ft | 436 kts | 103° |
| 2026-04-18 07:17 | -19.04135 | 48.53605 | 26720 ft | 440 kts | 103° |
| 2026-04-18 07:17 | -19.05018 | 48.56687 | 27079 ft | 444 kts | 103° |
| 2026-04-18 07:17 | -19.05922 | 48.59840 | 27443 ft | 447 kts | 103° |
| 2026-04-18 07:18 | -19.06824 | 48.62989 | 27803 ft | 451 kts | 103° |
| 2026-04-18 07:18 | -19.07747 | 48.66215 | 28165 ft | 454 kts | 102° |
| 2026-04-18 07:18 | -19.08660 | 48.69419 | 28503 ft | 458 kts | 102° |
| 2026-04-18 07:18 | -19.09579 | 48.72646 | 28808 ft | 462 kts | 102° |
| 2026-04-18 07:19 | -19.10513 | 48.75915 | 29130 ft | 466 kts | 102° |
| 2026-04-18 07:19 | -19.11472 | 48.79224 | 29553 ft | 466 kts | 103° |
| 2026-04-18 07:19 | -19.12419 | 48.82494 | 29995 ft | 466 kts | 102° |
| 2026-04-18 07:19 | -19.13370 | 48.85791 | 30408 ft | 466 kts | 102° |
| 2026-04-18 07:20 | -19.14305 | 48.89053 | 30789 ft | 467 kts | 102° |
| 2026-04-18 07:20 | -19.15248 | 48.92356 | 31168 ft | 468 kts | 102° |
| 2026-04-18 07:20 | -19.16180 | 48.95628 | 31541 ft | 469 kts | 102° |
| 2026-04-18 07:20 | -19.17126 | 48.98952 | 31915 ft | 469 kts | 102° |
| 2026-04-18 07:21 | -19.18060 | 49.02235 | 32229 ft | 472 kts | 102° |
| 2026-04-18 07:21 | -19.19009 | 49.05575 | 32499 ft | 475 kts | 102° |
| 2026-04-18 07:21 | -19.19963 | 49.08942 | 32752 ft | 478 kts | 102° |
| 2026-04-18 07:21 | -19.20921 | 49.12325 | 33007 ft | 482 kts | 101° |
| 2026-04-18 07:22 | -19.21878 | 49.15711 | 33251 ft | 485 kts | 101° |
| 2026-04-18 07:22 | -19.22846 | 49.19134 | 33488 ft | 488 kts | 101° |
| 2026-04-18 07:22 | -19.23817 | 49.22576 | 33725 ft | 492 kts | 101° |
| 2026-04-18 07:22 | -19.24807 | 49.26090 | 34004 ft | 494 kts | 101° |
| 2026-04-18 07:23 | -19.25790 | 49.29575 | 34326 ft | 495 kts | 102° |
| 2026-04-18 07:23 | -19.26767 | 49.33038 | 34684 ft | 494 kts | 102° |
| 2026-04-18 07:23 | -19.27758 | 49.36552 | 35056 ft | 493 kts | 102° |
| 2026-04-18 07:23 | -19.28731 | 49.40001 | 35431 ft | 492 kts | 102° |
| 2026-04-18 07:24 | -19.29703 | 49.43456 | 35782 ft | 491 kts | 101° |
| 2026-04-18 07:24 | -19.30676 | 49.46918 | 36120 ft | 490 kts | 101° |
| 2026-04-18 07:24 | -19.31640 | 49.50353 | 36435 ft | 489 kts | 102° |
| 2026-04-18 07:24 | -19.32614 | 49.53824 | 36719 ft | 489 kts | 101° |
| 2026-04-18 07:25 | -19.33589 | 49.57303 | 36996 ft | 489 kts | 101° |
| 2026-04-18 07:25 | -19.34551 | 49.60736 | 37257 ft | 489 kts | 101° |
| 2026-04-18 07:25 | -19.35525 | 49.64213 | 37505 ft | 489 kts | 101° |
| 2026-04-18 07:25 | -19.36494 | 49.67681 | 37726 ft | 489 kts | 101° |
| 2026-04-18 07:26 | -19.37447 | 49.71106 | 37897 ft | 491 kts | 101° |
| 2026-04-18 07:26 | -19.38420 | 49.74604 | 38050 ft | 492 kts | 101° |
| 2026-04-18 07:26 | -19.39385 | 49.78069 | 38213 ft | 493 kts | 101° |
| 2026-04-18 07:26 | -19.40363 | 49.81582 | 38375 ft | 494 kts | 101° |
| 2026-04-18 07:27 | -19.41328 | 49.85045 | 38530 ft | 495 kts | 101° |
| 2026-04-18 07:27 | -19.42307 | 49.88562 | 38674 ft | 496 kts | 101° |
| 2026-04-18 07:27 | -19.43276 | 49.92049 | 38802 ft | 497 kts | 101° |
| 2026-04-18 07:27 | -19.44251 | 49.95558 | 38930 ft | 498 kts | 101° |
| 2026-04-18 07:28 | -19.45229 | 49.99079 | 39061 ft | 498 kts | 101° |
| 2026-04-18 07:28 | -19.46212 | 50.02626 | 39195 ft | 499 kts | 101° |
| 2026-04-18 07:28 | -19.48173 | 50.09696 | 39228 ft | 500 kts | 101° |
| 2026-04-18 07:29 | -19.50142 | 50.16810 | 39231 ft | 501 kts | 101° |
| 2026-04-18 07:29 | -19.52089 | 50.23859 | 39233 ft | 501 kts | 101° |
| 2026-04-18 07:30 | -19.54053 | 50.30982 | 39233 ft | 501 kts | 101° |
| 2026-04-18 07:30 | -19.56001 | 50.38063 | 39233 ft | 501 kts | 101° |
| 2026-04-18 07:31 | -19.57943 | 50.45133 | 39233 ft | 501 kts | 101° |
| 2026-04-18 07:31 | -19.59883 | 50.52207 | 39233 ft | 501 kts | 101° |
| 2026-04-18 07:32 | -19.61821 | 50.59288 | 39233 ft | 501 kts | 101° |
| 2026-04-18 07:32 | -19.63766 | 50.66402 | 39231 ft | 501 kts | 101° |
| 2026-04-18 07:33 | -19.65693 | 50.73481 | 39233 ft | 500 kts | 101° |
| 2026-04-18 07:33 | -19.67631 | 50.80609 | 39233 ft | 501 kts | 101° |
| 2026-04-18 07:34 | -19.69559 | 50.87700 | 39233 ft | 500 kts | 101° |
| 2026-04-18 07:34 | -19.71484 | 50.94799 | 39232 ft | 501 kts | 101° |
| 2026-04-18 07:35 | -19.73411 | 51.01917 | 39233 ft | 502 kts | 101° |
| 2026-04-18 07:35 | -19.75335 | 51.09028 | 39232 ft | 503 kts | 101° |
| 2026-04-18 07:36 | -19.77264 | 51.16165 | 39233 ft | 503 kts | 102° |
| 2026-04-18 07:36 | -19.79192 | 51.23312 | 39233 ft | 503 kts | 102° |
| 2026-04-18 07:37 | -19.81114 | 51.30446 | 39233 ft | 503 kts | 102° |
| 2026-04-18 07:37 | -19.83029 | 51.37571 | 39233 ft | 503 kts | 102° |
| 2026-04-18 07:38 | -19.84943 | 51.44709 | 39222 ft | 503 kts | 102° |
| 2026-04-18 07:38 | -19.86865 | 51.51886 | 39193 ft | 503 kts | 102° |
| 2026-04-18 07:39 | -19.88770 | 51.59009 | 39152 ft | 503 kts | 102° |
| 2026-04-18 07:39 | -19.90686 | 51.66185 | 39108 ft | 503 kts | 101° |
| 2026-04-18 07:40 | -19.92578 | 51.73319 | 39086 ft | 504 kts | 101° |
| 2026-04-18 07:40 | -19.94478 | 51.80483 | 39076 ft | 504 kts | 101° |
| 2026-04-18 07:41 | -19.96370 | 51.87609 | 39072 ft | 503 kts | 101° |
| 2026-04-18 07:41 | -19.98278 | 51.94802 | 39070 ft | 503 kts | 101° |
| 2026-04-18 07:42 | -20.00163 | 52.01929 | 39070 ft | 503 kts | 101° |
| 2026-04-18 07:42 | -20.02057 | 52.09101 | 39069 ft | 503 kts | 101° |
| 2026-04-18 07:43 | -20.03944 | 52.16257 | 39066 ft | 503 kts | 101° |
| 2026-04-18 07:43 | -20.05829 | 52.23418 | 39057 ft | 503 kts | 101° |
| 2026-04-18 07:44 | -20.07724 | 52.30632 | 39045 ft | 503 kts | 101° |
| 2026-04-18 07:44 | -20.09599 | 52.37780 | 39033 ft | 503 kts | 101° |
| 2026-04-18 07:45 | -20.11503 | 52.44977 | 39024 ft | 503 kts | 101° |
| 2026-04-18 07:45 | -20.13395 | 52.52119 | 39023 ft | 503 kts | 101° |
| 2026-04-18 07:46 | -20.15274 | 52.59293 | 39022 ft | 503 kts | 101° |
| 2026-04-18 07:46 | -20.17133 | 52.66435 | 39020 ft | 503 kts | 101° |
| 2026-04-18 07:47 | -20.18995 | 52.73628 | 38860 ft | 503 kts | 101° |
| 2026-04-18 07:47 | -20.19932 | 52.77247 | 38607 ft | 501 kts | 101° |
| 2026-04-18 07:47 | -20.20843 | 52.80759 | 38361 ft | 499 kts | 101° |
| 2026-04-18 07:48 | -20.21759 | 52.84293 | 38112 ft | 495 kts | 101° |
| 2026-04-18 07:48 | -20.22672 | 52.87818 | 37835 ft | 492 kts | 101° |
| 2026-04-18 07:48 | -20.23581 | 52.91335 | 37489 ft | 491 kts | 100° |
| 2026-04-18 07:48 | -20.24470 | 52.94810 | 37031 ft | 490 kts | 99° |
| 2026-04-18 07:49 | -20.25316 | 52.98307 | 36424 ft | 491 kts | 99° |
| 2026-04-18 07:49 | -20.26142 | 53.01815 | 35844 ft | 489 kts | 99° |
| 2026-04-18 07:49 | -20.26962 | 53.05317 | 35253 ft | 489 kts | 98° |
| 2026-04-18 07:49 | -20.27789 | 53.08852 | 34608 ft | 490 kts | 99° |
| 2026-04-18 07:50 | -20.28609 | 53.12357 | 33929 ft | 491 kts | 99° |
| 2026-04-18 07:50 | -20.29440 | 53.15893 | 33276 ft | 492 kts | 98° |
| 2026-04-18 07:50 | -20.30268 | 53.19410 | 32700 ft | 489 kts | 98° |
| 2026-04-18 07:50 | -20.31091 | 53.22904 | 32153 ft | 486 kts | 98° |
| 2026-04-18 07:51 | -20.31899 | 53.26337 | 31603 ft | 482 kts | 98° |
| 2026-04-18 07:51 | -20.32709 | 53.29791 | 31053 ft | 479 kts | 98° |
| 2026-04-18 07:51 | -20.33516 | 53.33235 | 30481 ft | 477 kts | 98° |
| 2026-04-18 07:51 | -20.34318 | 53.36664 | 29906 ft | 474 kts | 98° |
| 2026-04-18 07:52 | -20.35099 | 53.40006 | 29560 ft | 469 kts | 98° |
| 2026-04-18 07:52 | -20.35890 | 53.43391 | 29245 ft | 465 kts | 98° |
| 2026-04-18 07:52 | -20.36662 | 53.46699 | 28928 ft | 461 kts | 98° |
| 2026-04-18 07:52 | -20.37438 | 53.50026 | 28601 ft | 457 kts | 98° |
| 2026-04-18 07:53 | -20.38203 | 53.53311 | 28269 ft | 453 kts | 98° |
| 2026-04-18 07:53 | -20.38954 | 53.56539 | 27942 ft | 449 kts | 98° |
| 2026-04-18 07:53 | -20.39702 | 53.59756 | 27606 ft | 445 kts | 98° |
| 2026-04-18 07:53 | -20.40436 | 53.62916 | 27275 ft | 441 kts | 98° |
| 2026-04-18 07:54 | -20.41177 | 53.66112 | 26937 ft | 437 kts | 97° |
| 2026-04-18 07:54 | -20.41907 | 53.69269 | 26600 ft | 433 kts | 97° |
| 2026-04-18 07:54 | -20.42615 | 53.72333 | 26269 ft | 429 kts | 98° |
| 2026-04-18 07:54 | -20.43328 | 53.75422 | 25932 ft | 425 kts | 98° |
| 2026-04-18 07:55 | -20.44025 | 53.78438 | 25567 ft | 422 kts | 98° |
| 2026-04-18 07:55 | -20.44719 | 53.81448 | 25173 ft | 418 kts | 98° |
| 2026-04-18 07:55 | -20.45421 | 53.84493 | 24766 ft | 415 kts | 98° |
| 2026-04-18 07:55 | -20.46113 | 53.87493 | 24357 ft | 412 kts | 98° |
| 2026-04-18 07:56 | -20.46800 | 53.90476 | 23940 ft | 409 kts | 98° |
| 2026-04-18 07:56 | -20.47476 | 53.93415 | 23527 ft | 406 kts | 98° |
| 2026-04-18 07:56 | -20.48147 | 53.96331 | 23118 ft | 403 kts | 98° |
| 2026-04-18 07:56 | -20.48810 | 53.99215 | 22708 ft | 400 kts | 99° |
| 2026-04-18 07:57 | -20.49476 | 54.02111 | 22288 ft | 397 kts | 99° |
| 2026-04-18 07:57 | -20.50132 | 54.04972 | 21866 ft | 394 kts | 99° |
| 2026-04-18 07:57 | -20.50779 | 54.07793 | 21446 ft | 391 kts | 99° |
| 2026-04-18 07:57 | -20.51427 | 54.10619 | 21021 ft | 388 kts | 99° |
| 2026-04-18 07:58 | -20.52701 | 54.16186 | 20166 ft | 382 kts | 100° |
| 2026-04-18 07:58 | -20.53326 | 54.18917 | 19739 ft | 380 kts | 100° |
| 2026-04-18 07:58 | -20.53946 | 54.21632 | 19311 ft | 377 kts | 100° |
| 2026-04-18 07:59 | -20.54560 | 54.24320 | 18883 ft | 374 kts | 101° |
| 2026-04-18 07:59 | -20.55174 | 54.27009 | 18450 ft | 371 kts | 101° |
| 2026-04-18 07:59 | -20.55784 | 54.29681 | 18015 ft | 368 kts | 101° |
| 2026-04-18 07:59 | -20.56385 | 54.32318 | 17583 ft | 365 kts | 101° |
| 2026-04-18 08:00 | -20.56986 | 54.34959 | 17146 ft | 362 kts | 101° |
| 2026-04-18 08:00 | -20.57572 | 54.37533 | 16732 ft | 359 kts | 102° |
| 2026-04-18 08:00 | -20.58164 | 54.40136 | 16308 ft | 356 kts | 102° |
| 2026-04-18 08:00 | -20.58742 | 54.42680 | 15884 ft | 354 kts | 102° |
| 2026-04-18 08:01 | -20.59318 | 54.45217 | 15456 ft | 351 kts | 102° |
| 2026-04-18 08:01 | -20.59887 | 54.47726 | 15028 ft | 348 kts | 102° |
| 2026-04-18 08:01 | -20.60459 | 54.50248 | 14596 ft | 346 kts | 102° |
| 2026-04-18 08:01 | -20.61020 | 54.52722 | 14149 ft | 344 kts | 103° |
| 2026-04-18 08:02 | -20.61581 | 54.55199 | 13706 ft | 343 kts | 103° |
| 2026-04-18 08:02 | -20.62143 | 54.57679 | 13268 ft | 341 kts | 103° |
| 2026-04-18 08:02 | -20.62697 | 54.60129 | 12835 ft | 339 kts | 103° |
| 2026-04-18 08:02 | -20.63242 | 54.62539 | 12409 ft | 338 kts | 103° |
| 2026-04-18 08:03 | -20.63794 | 54.64984 | 11975 ft | 337 kts | 103° |
| 2026-04-18 08:03 | -20.64334 | 54.67380 | 11559 ft | 335 kts | 103° |
| 2026-04-18 08:03 | -20.64877 | 54.69797 | 11148 ft | 333 kts | 103° |
| 2026-04-18 08:03 | -20.65416 | 54.72195 | 10808 ft | 328 kts | 103° |
| 2026-04-18 08:04 | -20.65946 | 54.74551 | 10528 ft | 321 kts | 103° |
| 2026-04-18 08:04 | -20.66457 | 54.76824 | 10271 ft | 314 kts | 103° |
| 2026-04-18 08:04 | -20.66962 | 54.79069 | 10142 ft | 303 kts | 103° |
| 2026-04-18 08:04 | -20.67440 | 54.81200 | 10066 ft | 291 kts | 103° |
| 2026-04-18 08:05 | -20.67909 | 54.83288 | 9935 ft | 282 kts | 103° |
| 2026-04-18 08:05 | -20.68359 | 54.85297 | 9613 ft | 281 kts | 103° |
| 2026-04-18 08:05 | -20.68818 | 54.87344 | 9303 ft | 279 kts | 103° |
| 2026-04-18 08:05 | -20.69267 | 54.89346 | 9005 ft | 277 kts | 103° |
| 2026-04-18 08:06 | -20.69711 | 54.91327 | 8713 ft | 274 kts | 103° |
| 2026-04-18 08:06 | -20.70157 | 54.93313 | 8440 ft | 272 kts | 103° |
| 2026-04-18 08:06 | -20.70593 | 54.95260 | 8163 ft | 270 kts | 103° |
| 2026-04-18 08:06 | -20.71027 | 54.97200 | 7882 ft | 268 kts | 103° |
| 2026-04-18 08:07 | -20.71461 | 54.99143 | 7598 ft | 266 kts | 103° |
| 2026-04-18 08:07 | -20.71887 | 55.01050 | 7318 ft | 265 kts | 103° |
| 2026-04-18 08:07 | -20.72312 | 55.02955 | 7037 ft | 263 kts | 103° |
| 2026-04-18 08:07 | -20.72741 | 55.04875 | 6755 ft | 262 kts | 103° |
| 2026-04-18 08:08 | -20.73158 | 55.06746 | 6480 ft | 261 kts | 103° |
| 2026-04-18 08:08 | -20.73581 | 55.08641 | 6201 ft | 260 kts | 103° |
| 2026-04-18 08:08 | -20.73999 | 55.10518 | 5925 ft | 259 kts | 103° |
| 2026-04-18 08:08 | -20.74411 | 55.12366 | 5653 ft | 258 kts | 103° |
| 2026-04-18 08:09 | -20.74826 | 55.14228 | 5355 ft | 258 kts | 103° |
| 2026-04-18 08:09 | -20.75241 | 55.16092 | 5055 ft | 257 kts | 103° |
| 2026-04-18 08:09 | -20.75558 | 55.17516 | 4836 ft | 257 kts | 103° |
| 2026-04-18 08:09 | -20.75975 | 55.19391 | 4533 ft | 256 kts | 103° |
| 2026-04-18 08:10 | -20.76387 | 55.21245 | 4249 ft | 256 kts | 103° |
| 2026-04-18 08:10 | -20.76794 | 55.23077 | 3984 ft | 254 kts | 103° |
| 2026-04-18 08:10 | -20.77197 | 55.24891 | 3949 ft | 241 kts | 103° |
| 2026-04-18 08:10 | -20.77570 | 55.26582 | 3925 ft | 231 kts | 104° |
| 2026-04-18 08:11 | -20.78052 | 55.28181 | 3919 ft | 221 kts | 110° |
| 2026-04-18 08:11 | -20.78686 | 55.29681 | 3922 ft | 220 kts | 115° |
| 2026-04-18 08:11 | -20.79370 | 55.31123 | 3907 ft | 211 kts | 116° |
| 2026-04-18 08:11 | -20.80021 | 55.32475 | 3857 ft | 202 kts | 115° |
| 2026-04-18 08:12 | -20.80656 | 55.33811 | 3724 ft | 197 kts | 115° |
| 2026-04-18 08:12 | -20.81266 | 55.35110 | 3509 ft | 197 kts | 115° |
| 2026-04-18 08:12 | -20.81867 | 55.36398 | 3386 ft | 189 kts | 115° |
| 2026-04-18 08:12 | -20.82449 | 55.37645 | 3177 ft | 183 kts | 115° |
| 2026-04-18 08:13 | -20.82997 | 55.38820 | 2861 ft | 175 kts | 115° |
| 2026-04-18 08:13 | -20.83530 | 55.39961 | 2486 ft | 167 kts | 115° |
| 2026-04-18 08:13 | -20.84034 | 55.41040 | 2105 ft | 158 kts | 114° |
| 2026-04-18 08:13 | -20.84510 | 55.42057 | 1759 ft | 151 kts | 114° |
| 2026-04-18 08:14 | -20.84940 | 55.42994 | 1622 ft | 131 kts | 113° |
| 2026-04-18 08:14 | -20.85317 | 55.43839 | 1408 ft | 123 kts | 112° |
| 2026-04-18 08:14 | -20.85690 | 55.44648 | 1184 ft | 121 kts | 112° |
| 2026-04-18 08:14 | -20.86060 | 55.45462 | 1013 ft | 121 kts | 113° |
| 2026-04-18 08:15 | -20.86435 | 55.46267 | 833 ft | 120 kts | 116° |
| 2026-04-18 08:15 | -20.86836 | 55.47060 | 705 ft | 120 kts | 114° |
| 2026-04-18 08:15 | -20.87229 | 55.47855 | 614 ft | 120 kts | 114° |
| 2026-04-18 08:15 | -20.87598 | 55.48661 | 490 ft | 120 kts | 111° |
| 2026-04-18 08:16 | -20.87965 | 55.49457 | 334 ft | 120 kts | 114° |
| 2026-04-18 08:16 | -20.88342 | 55.50250 | 180 ft | 119 kts | 113° |
| 2026-04-18 08:16 | -20.88717 | 55.51041 | 80 ft | 113 kts | 112° |
| 2026-04-18 08:16 | -20.89007 | 55.51671 | 73 ft | 71 kts | 115° |
| 2026-04-18 08:17 | -20.89160 | 55.52004 | 73 ft | 34 kts | 117° |
| 2026-04-18 08:17 | -20.89245 | 55.52177 | 73 ft | 20 kts | 117° |
| 2026-04-18 08:17 | -20.89309 | 55.52238 | 73 ft | 8 kts | 205° |
| 2026-04-18 08:17 | -20.89363 | 55.52203 | 73 ft | 10 kts | 211° |
| 2026-04-18 08:18 | -20.89416 | 55.52148 | 73 ft | 11 kts | 249° |
| 2026-04-18 08:18 | -20.89377 | 55.52074 | 72 ft | 12 kts | 302° |
| 2026-04-18 08:18 | -20.89336 | 55.51988 | 72 ft | 13 kts | 295° |
| 2026-04-18 08:18 | -20.89292 | 55.51889 | 73 ft | 15 kts | 296° |
| 2026-04-18 08:19 | -20.89246 | 55.51785 | 72 ft | 16 kts | 296° |
| 2026-04-18 08:19 | -20.89193 | 55.51672 | 73 ft | 17 kts | 297° |
| 2026-04-18 08:19 | -20.89137 | 55.51555 | 73 ft | 16 kts | 296° |
| 2026-04-18 08:19 | -20.89085 | 55.51443 | 72 ft | 17 kts | 297° |
| 2026-04-18 08:20 | -20.89073 | 55.51417 | 73 ft | 15 kts | 297° |
| 2026-04-18 08:20 | -20.89036 | 55.51338 | 72 ft | 16 kts | 297° |
| 2026-04-18 08:20 | -20.88983 | 55.51226 | 72 ft | 17 kts | 297° |
| 2026-04-18 08:21 | -20.88935 | 55.51124 | 72 ft | 10 kts | 296° |
| 2026-04-18 08:21 | -20.88943 | 55.51069 | 72 ft | 7 kts | 185° |
| 2026-04-18 08:21 | -20.88989 | 55.51050 | 73 ft | 5 kts | 206° |
| 2026-04-18 08:21 | -20.88996 | 55.51046 | 72 ft | 0 kts | 206° |